• Join FlightAware (Why Join?)
  • Login
  • US Flag 
07:09PM EST


 

Airport Tracker/Info


-or-


 

Live Flight TrackerFlight Track Log ✈ UAL4476 ✈ 08-Apr-2013 ✈ KCLE - KDAY

Flight Track Log - Related Links

Times and Time Zones

All times are in EDT time to prevent confusion due to time zone crossing. See the UAL4476 flight status page for this flight to view local times or setup timezone preferences in your user account.

Time Position Orientation Groundspeed Altitude Reporting Facility
EDT Latitude Longitude Course Direction KTS MPH feet Rate Location/Type
02:27PM 41.3939 -81.8814 257° West 161 185 1,800  Level Cleveland Center
02:28PM 41.3783 -81.9722 257° West 235 270 4,000 2,040 Climbing Cleveland Center
02:28PM 41.3672 -82.0272 255° West 237 273 5,600 2,820 Climbing Cleveland Center
02:29PM 41.3583 -82.0547 247° West 232 267 6,900 2,880 Climbing Cleveland Center
02:29PM 41.3433 -82.0989 246° West 228 262 8,500 2,040 Climbing Cleveland Center
02:30PM 41.3131 -82.1811 244° Southwest 228 262 10,200 1,500 Climbing Cleveland Center
02:31PM 41.2783 -82.2714 243° Southwest 259 298 11,500 1,320 Climbing Cleveland Center
02:32PM 41.2353 -82.3614 238° Southwest 278 320 12,900 1,200 Climbing Cleveland Center
02:33PM 41.1858 -82.4511 234° Southwest 299 344 14,000 540 Climbing Cleveland Center
02:34PM 41.1322 -82.5514 235° Southwest 322 371 14,000  Level Cleveland Center
02:35PM 41.0761 -82.6517 233° Southwest 343 395 14,000  Level Cleveland Center
02:36PM 41.0200 -82.7517 233° Southwest 343 395 14,000 -60 Level Cleveland Center
02:37PM 40.9639 -82.8517 233° Southwest 343 395 13,900 -60 Descending Cleveland Center
02:38PM 40.9078 -82.9514 233° Southwest 343 395 13,900  Level Cleveland Center
02:39PM 40.8578 -83.0375 233° Southwest 343 395 13,900  Level Cleveland Center
02:42PM 40.7275 -83.2244 227° Southwest 348 400 13,900  Level Indianapolis Center
02:43PM 40.6622 -83.3144 226° Southwest 339 390 13,900  Level Indianapolis Center
02:44PM 40.6086 -83.4194 236° Southwest 340 391 13,900  Level Indianapolis Center
02:45PM 40.5558 -83.5239 236° Southwest 342 394 13,900  Level Indianapolis Center
02:46PM 40.4931 -83.6450 236° Southwest 342 394 14,000 -60 Climbing Indianapolis Center
02:46PM 40.4492 -83.7289 236° Southwest 341 392 13,800 -780 Descending Indianapolis Center
02:47PM 40.3978 -83.8292 236° Southwest 336 387 12,600 -1,260 Descending Indianapolis Center
02:48PM 40.3508 -83.9217 236° Southwest 295 339 11,300 -1,320 Descending Indianapolis Center
02:49PM 40.3422 -83.9381 235° Southwest 299 344 11,000 -1,380 Descending Indianapolis Center
02:49PM 40.3075 -83.9953 232° Southwest 246 283 9,900 -1,380 Descending Indianapolis Center
02:50PM 40.2986 -84.0106 233° Southwest 260 299 9,600 -1,500 Descending Indianapolis Center
02:50PM 40.2642 -84.0692 232° Southwest 231 266 8,400 -1,500 Descending Indianapolis Center
02:51PM 40.2586 -84.0769 227° Southwest 240 276 8,100 -1,920 Descending Indianapolis Center
02:52PM 40.2200 -84.1261 224° Southwest 211 243 6,300 -2,100 Descending Indianapolis Center
02:53PM 40.1639 -84.1486 197° South 211 243 4,300 -1,980 Descending Indianapolis Center
02:53PM 40.1542 -84.1594 220° Southwest 214 246 3,800 -1,320 Descending Indianapolis Center
02:54PM 40.1286 -84.1958 227° Southwest 177 204 3,100 -780 Descending Indianapolis Center
02:54PM 40.1186 -84.2108 229° Southwest 199 229 3,000  Descending Indianapolis Center
02:55PM 40.0850 -84.2175 189° South 176 203 3,100  Climbing Indianapolis Center
02:55PM 40.0683 -84.2175 180° South 191 220 3,000 -120 Descending Indianapolis Center
02:55PM 40.0350 -84.2161 178° South 194 223 3,000 -120 Level Indianapolis Center
02:56PM 40.0150 -84.2147 177° South 190 219 2,900 -540 Descending Indianapolis Center
02:56PM 39.9908 -84.2158 182° South 147 169 2,500 -720 Descending Indianapolis Center
02:57PM 39.9783 -84.2142 174° South 158 182 2,200 -600 Descending Indianapolis Center
02:57PM 39.9575 -84.2142 180° South 104 120 1,900 -300 Descending Indianapolis Center
02:58PM 39.9444 -84.2128 175° South 137 158 1,900 -600 Level Indianapolis Center
02:58PM 39.9261 -84.2125 179° South 114 131 1,300 -1,380 Descending Indianapolis Center
03:00PM 39.9000 -84.2167 123° Southeast  Level FlightAware Approximate